createdAt,value
2023-03-07T00:00:09.652Z,17.90
2023-03-07T00:02:38.838Z,19.00
2023-03-07T00:05:09.157Z,18.80
2023-03-07T00:07:38.790Z,20.30
2023-03-07T00:10:07.860Z,21.90
2023-03-07T00:12:37.257Z,20.10
2023-03-07T00:15:06.004Z,21.30
2023-03-07T00:17:37.909Z,24.20
2023-03-07T00:20:07.639Z,22.00
2023-03-07T00:22:35.900Z,21.50
2023-03-07T00:25:04.585Z,25.50
2023-03-07T00:27:34.078Z,22.20
2023-03-07T00:30:05.332Z,20.90
2023-03-07T00:32:33.719Z,22.70
2023-03-07T00:37:30.952Z,17.70
2023-03-07T00:40:00.387Z,16.80
2023-03-07T00:42:28.687Z,20.00
2023-03-07T00:44:56.798Z,21.00
2023-03-07T00:47:24.734Z,21.60
2023-03-07T00:49:52.823Z,19.00
2023-03-07T00:52:20.956Z,17.70
2023-03-07T00:54:49.165Z,19.90
2023-03-07T00:57:17.912Z,18.00
2023-03-07T00:59:46.979Z,18.00
2023-03-07T01:02:15.507Z,18.40
2023-03-07T01:04:45.021Z,17.10
2023-03-07T01:07:13.533Z,16.90
2023-03-07T01:09:43.869Z,18.60
2023-03-07T01:12:13.066Z,18.90
2023-03-07T01:14:42.083Z,17.10
2023-03-07T01:17:10.671Z,17.90
2023-03-07T01:19:38.772Z,17.60
2023-03-07T01:22:07.119Z,17.10
2023-03-07T01:24:35.224Z,18.10
2023-03-07T01:27:03.510Z,18.40
2023-03-07T01:29:31.946Z,17.80
2023-03-07T01:32:00.179Z,17.00
2023-03-07T01:34:28.706Z,17.30
2023-03-07T01:36:56.983Z,16.50
2023-03-07T01:39:25.321Z,16.40
2023-03-07T01:41:57.892Z,15.90
2023-03-07T01:44:30.116Z,15.40
2023-03-07T01:47:00.029Z,16.50
2023-03-07T01:49:48.470Z,14.80
2023-03-07T01:52:25.569Z,15.20
2023-03-07T01:54:58.748Z,15.70
2023-03-07T01:57:31.514Z,15.60
2023-03-07T02:00:00.914Z,15.50
2023-03-07T02:02:29.395Z,14.70
2023-03-07T02:05:06.442Z,15.30
2023-03-07T02:07:37.845Z,15.40
2023-03-07T02:10:07.296Z,14.10
2023-03-07T02:12:36.486Z,14.30
2023-03-07T02:15:05.421Z,14.30
2023-03-07T02:17:34.530Z,12.70
2023-03-07T02:22:37.224Z,15.10
2023-03-07T02:25:12.284Z,14.90
2023-03-07T02:27:40.425Z,14.50
2023-03-07T02:32:38.947Z,12.00
2023-03-07T02:35:15.026Z,12.70
2023-03-07T02:37:45.577Z,11.70
2023-03-07T02:40:14.597Z,12.60
2023-03-07T02:42:43.100Z,11.70
2023-03-07T02:45:15.693Z,11.60
2023-03-07T02:47:45.762Z,11.90
2023-03-07T02:50:16.128Z,12.80
2023-03-07T02:52:46.633Z,12.30
2023-03-07T02:55:16.344Z,12.10
2023-03-07T02:57:50.385Z,12.40
2023-03-07T03:00:19.280Z,12.60
2023-03-07T03:05:16.211Z,16.60
2023-03-07T03:07:46.777Z,20.50
2023-03-07T03:10:14.892Z,29.70
2023-03-07T03:12:44.389Z,28.40
2023-03-07T03:15:13.201Z,24.30
2023-03-07T03:17:43.328Z,21.90
2023-03-07T03:20:13.092Z,34.50
2023-03-07T03:22:41.960Z,33.90
2023-03-07T03:25:11.394Z,30.20
2023-03-07T03:27:41.245Z,26.40
2023-03-07T03:30:11.162Z,23.10
2023-03-07T03:32:40.481Z,20.80
2023-03-07T03:35:09.827Z,19.20
2023-03-07T03:37:38.106Z,19.10
2023-03-07T03:40:14.252Z,22.80
2023-03-07T03:42:45.854Z,28.10
2023-03-07T03:45:15.155Z,30.20
2023-03-07T03:47:43.330Z,28.10
2023-03-07T03:50:11.473Z,27.00
2023-03-07T03:52:45.414Z,28.00
2023-03-07T03:55:13.854Z,30.10
2023-03-07T03:57:43.638Z,32.40
2023-03-07T04:00:14.846Z,29.20
2023-03-07T04:02:43.130Z,28.70
2023-03-07T04:05:11.848Z,24.00
2023-03-07T04:07:41.920Z,20.70
2023-03-07T04:10:10.750Z,20.30
2023-03-07T04:12:39.874Z,21.80
2023-03-07T04:15:08.595Z,17.70
2023-03-07T04:17:40.868Z,16.90
2023-03-07T04:20:17.414Z,19.50
2023-03-07T04:22:46.782Z,20.80
2023-03-07T04:25:14.904Z,19.20
2023-03-07T04:27:44.004Z,19.10
2023-03-07T04:30:13.225Z,19.30
2023-03-07T04:32:42.770Z,20.20
2023-03-07T04:35:10.925Z,19.80
2023-03-07T04:37:40.698Z,20.30
2023-03-07T04:40:10.188Z,15.40
2023-03-07T04:42:38.334Z,20.60
2023-03-07T04:45:07.153Z,29.20
2023-03-07T04:47:35.748Z,32.60
2023-03-07T04:50:04.766Z,36.60
2023-03-07T04:52:34.318Z,39.80
2023-03-07T04:55:02.897Z,36.70
2023-03-07T04:57:31.410Z,31.30
2023-03-07T04:59:59.878Z,27.80
2023-03-07T05:02:28.012Z,16.60
2023-03-07T05:04:56.359Z,18.90
2023-03-07T05:07:25.017Z,19.40
2023-03-07T05:09:53.249Z,17.40
2023-03-07T05:12:21.529Z,14.40
2023-03-07T05:14:49.564Z,15.20
2023-03-07T05:17:18.046Z,14.50
2023-03-07T05:19:46.975Z,13.80
2023-03-07T05:22:35.156Z,12.90
2023-03-07T05:25:03.433Z,14.80
2023-03-07T05:27:32.632Z,12.00
2023-03-07T05:30:00.706Z,12.50
2023-03-07T05:32:29.300Z,12.90
2023-03-07T05:34:57.802Z,14.20
2023-03-07T05:37:32.250Z,16.80
2023-03-07T05:42:29.689Z,17.20
2023-03-07T05:44:57.681Z,17.50
2023-03-07T05:47:26.079Z,16.10
2023-03-07T05:49:54.496Z,15.50
2023-03-07T05:52:22.722Z,16.30
2023-03-07T05:54:51.443Z,15.60
2023-03-07T05:57:21.994Z,17.30
2023-03-07T05:59:50.398Z,15.50
2023-03-07T06:02:18.832Z,15.00
2023-03-07T06:04:47.828Z,18.10
2023-03-07T06:07:15.916Z,15.90
2023-03-07T06:09:44.351Z,14.20
2023-03-07T06:12:12.710Z,13.70
2023-03-07T06:14:44.852Z,14.30
2023-03-07T06:17:13.281Z,13.20
2023-03-07T06:19:41.645Z,13.50
2023-03-07T06:22:16.661Z,11.60
2023-03-07T06:27:14.101Z,12.10
2023-03-07T06:29:42.386Z,12.70
2023-03-07T06:32:10.640Z,13.40
2023-03-07T06:34:38.987Z,13.00
2023-03-07T06:37:07.092Z,13.50
2023-03-07T06:39:35.994Z,13.00
2023-03-07T06:42:05.330Z,13.80
2023-03-07T06:47:07.108Z,13.40
2023-03-07T06:49:35.920Z,11.80
2023-03-07T06:52:04.203Z,12.60
2023-03-07T06:54:32.781Z,13.20
2023-03-07T06:57:01.027Z,13.20
2023-03-07T06:59:29.369Z,12.70
2023-03-07T07:01:57.505Z,13.10
2023-03-07T07:04:25.913Z,12.70
2023-03-07T07:06:54.216Z,13.10
2023-03-07T07:09:22.466Z,13.50
2023-03-07T07:14:22.026Z,12.20
2023-03-07T07:16:50.587Z,12.90
2023-03-07T07:19:18.791Z,12.80
2023-03-07T07:21:49.270Z,12.20
2023-03-07T07:24:18.180Z,11.30
2023-03-07T07:26:48.281Z,11.70
2023-03-07T07:29:16.552Z,12.40
2023-03-07T07:34:13.884Z,13.10
2023-03-07T07:36:43.161Z,11.20
2023-03-07T07:39:11.600Z,10.50
2023-03-07T07:41:39.943Z,9.40
2023-03-07T07:44:08.021Z,11.00
2023-03-07T07:46:41.018Z,9.60
2023-03-07T07:49:09.218Z,10.00
2023-03-07T07:51:37.495Z,11.40
2023-03-07T07:54:07.468Z,13.80
2023-03-07T07:56:35.549Z,10.30
2023-03-07T07:59:04.127Z,9.90
2023-03-07T08:01:32.196Z,9.80
2023-03-07T08:04:00.182Z,10.70
2023-03-07T08:06:28.684Z,12.40
2023-03-07T08:08:56.728Z,10.70
2023-03-07T08:11:27.305Z,11.20
2023-03-07T08:13:56.084Z,11.20
2023-03-07T08:16:24.341Z,10.40
2023-03-07T08:18:57.231Z,12.20
2023-03-07T08:21:25.847Z,12.00
2023-03-07T08:23:54.616Z,12.20
2023-03-07T08:26:22.894Z,11.90
2023-03-07T08:28:51.373Z,11.40
2023-03-07T08:31:23.647Z,11.90
2023-03-07T08:33:56.327Z,12.90
2023-03-07T08:36:24.621Z,13.00
2023-03-07T08:38:59.198Z,14.80
2023-03-07T08:41:27.214Z,14.90
2023-03-07T08:43:55.206Z,13.50
2023-03-07T08:46:23.798Z,14.80
2023-03-07T08:48:51.797Z,15.00
2023-03-07T08:51:21.064Z,16.20
2023-03-07T08:53:49.182Z,16.10
2023-03-07T08:56:18.260Z,15.50
2023-03-07T08:58:46.239Z,16.80
2023-03-07T09:01:14.422Z,16.10
2023-03-07T09:03:42.716Z,17.60
2023-03-07T09:06:15.774Z,17.80
2023-03-07T09:08:45.093Z,16.60
2023-03-07T09:11:15.516Z,16.70
2023-03-07T09:13:51.901Z,17.90
2023-03-07T09:16:21.690Z,17.90
2023-03-07T09:18:50.159Z,16.70
2023-03-07T09:21:20.064Z,19.30
2023-03-07T09:23:48.669Z,15.90
2023-03-07T09:26:19.201Z,19.30
2023-03-07T09:28:47.576Z,19.00
2023-03-07T09:31:16.534Z,17.20
2023-03-07T09:33:47.229Z,16.30
2023-03-07T09:36:15.989Z,15.70
2023-03-07T09:38:44.179Z,15.00
2023-03-07T09:41:21.420Z,15.60
2023-03-07T09:44:29.971Z,16.90
2023-03-07T09:47:57.854Z,16.40
2023-03-07T09:50:34.888Z,15.20
2023-03-07T09:53:04.270Z,15.40
2023-03-07T09:55:32.785Z,16.90
2023-03-07T09:58:05.264Z,16.50
2023-03-07T10:00:38.247Z,16.40
2023-03-07T10:03:16.554Z,15.60
2023-03-07T10:05:52.027Z,16.70
2023-03-07T10:08:29.898Z,15.70
2023-03-07T10:11:19.863Z,17.10
2023-03-07T10:13:55.396Z,17.30
2023-03-07T10:16:27.522Z,15.20
2023-03-07T10:19:36.656Z,15.60
2023-03-07T10:22:06.069Z,15.80
2023-03-07T10:25:05.962Z,15.10
2023-03-07T10:27:34.083Z,14.60
2023-03-07T10:30:06.092Z,15.90
2023-03-07T10:33:03.882Z,15.60
2023-03-07T10:35:41.497Z,16.90
2023-03-07T10:38:25.313Z,16.10
2023-03-07T10:41:01.966Z,17.20
2023-03-07T10:43:31.640Z,17.70
2023-03-07T10:46:25.259Z,18.00
2023-03-07T10:49:00.238Z,18.40
2023-03-07T10:51:51.205Z,18.00
2023-03-07T10:54:21.712Z,17.20
2023-03-07T10:57:08.795Z,18.00
2023-03-07T10:59:39.198Z,18.50
2023-03-07T11:02:29.449Z,19.10
2023-03-07T11:04:57.920Z,19.20
2023-03-07T11:07:29.958Z,18.70
2023-03-07T11:09:59.205Z,18.20
2023-03-07T11:12:29.344Z,19.40
2023-03-07T11:15:09.354Z,17.20
2023-03-07T11:17:43.057Z,18.30
2023-03-07T11:20:30.493Z,17.20
2023-03-07T11:25:43.352Z,18.40
2023-03-07T11:28:31.388Z,18.40
2023-03-07T11:31:17.825Z,19.10
2023-03-07T11:34:06.627Z,19.70
2023-03-07T11:36:37.790Z,19.80
2023-03-07T11:39:18.148Z,18.80
2023-03-07T11:41:58.182Z,18.70
2023-03-07T11:44:33.541Z,18.60
2023-03-07T11:47:18.175Z,19.10
2023-03-07T11:50:05.822Z,18.70
2023-03-07T11:52:46.264Z,19.00
2023-03-07T11:55:43.980Z,18.40
2023-03-07T11:58:46.438Z,19.60
2023-03-07T12:01:15.459Z,19.30
2023-03-07T12:04:01.737Z,19.90
2023-03-07T12:06:42.431Z,18.80
2023-03-07T12:09:17.434Z,18.40
2023-03-07T12:12:16.635Z,19.60
2023-03-07T12:14:50.934Z,19.50
2023-03-07T12:17:36.506Z,20.00
2023-03-07T12:20:57.980Z,19.80
2023-03-07T12:23:33.846Z,20.40
2023-03-07T12:26:22.553Z,20.10
2023-03-07T12:28:55.645Z,21.70
2023-03-07T12:31:38.154Z,19.40
2023-03-07T12:34:09.812Z,20.30
2023-03-07T12:36:44.888Z,19.00
2023-03-07T12:39:26.683Z,20.30
2023-03-07T12:42:13.668Z,19.60
2023-03-07T12:44:46.345Z,19.30
2023-03-07T12:47:30.707Z,20.50
2023-03-07T12:50:03.517Z,21.30
2023-03-07T12:52:46.390Z,21.30
2023-03-07T12:55:42.120Z,20.40
2023-03-07T12:58:10.325Z,21.00
2023-03-07T13:00:45.183Z,20.50
2023-03-07T13:03:44.911Z,20.60
2023-03-07T13:08:48.010Z,19.60
2023-03-07T13:11:17.916Z,19.80
2023-03-07T13:13:46.545Z,21.70
2023-03-07T13:16:34.934Z,20.80
2023-03-07T13:19:31.424Z,22.10
2023-03-07T13:26:45.513Z,20.30
2023-03-07T13:33:49.196Z,21.20
2023-03-07T13:36:34.699Z,20.40
2023-03-07T13:39:02.833Z,20.40
2023-03-07T13:41:47.741Z,20.70
2023-03-07T13:44:39.078Z,20.40
2023-03-07T13:47:40.381Z,20.90
2023-03-07T13:50:36.856Z,21.60
2023-03-07T13:53:15.790Z,22.00
2023-03-07T13:55:48.946Z,21.40
2023-03-07T13:58:31.828Z,20.50
2023-03-07T14:01:12.629Z,20.60
2023-03-07T14:03:44.924Z,20.30
2023-03-07T14:06:41.075Z,20.70
2023-03-07T14:09:14.896Z,20.00
2023-03-07T14:11:49.525Z,21.00
2023-03-07T14:14:39.528Z,22.10
2023-03-07T14:17:40.684Z,21.00
2023-03-07T14:20:17.701Z,19.70
2023-03-07T14:23:21.565Z,20.60
2023-03-07T14:25:52.447Z,20.20
2023-03-07T14:28:23.912Z,19.00
2023-03-07T14:30:58.679Z,21.60
2023-03-07T14:33:32.932Z,20.40
2023-03-07T14:36:19.223Z,21.10
2023-03-07T14:38:48.173Z,20.90
2023-03-07T14:41:33.911Z,20.10
2023-03-07T14:44:20.426Z,20.20
2023-03-07T14:47:10.944Z,21.00
2023-03-07T14:49:50.672Z,19.50
2023-03-07T14:52:29.899Z,20.70
2023-03-07T14:55:01.937Z,21.90
2023-03-07T14:57:40.790Z,21.30
2023-03-07T15:00:16.619Z,22.10
2023-03-07T15:02:53.349Z,20.60
2023-03-07T15:05:23.853Z,22.00
2023-03-07T15:07:52.272Z,21.00
2023-03-07T15:10:34.691Z,20.20
2023-03-07T15:13:05.357Z,22.40
2023-03-07T15:15:40.185Z,21.80
2023-03-07T15:18:20.753Z,22.50
2023-03-07T15:20:49.796Z,21.70
2023-03-07T15:25:53.191Z,22.00
2023-03-07T15:28:35.811Z,20.90
2023-03-07T15:31:04.947Z,22.20
2023-03-07T15:33:33.353Z,20.60
2023-03-07T15:36:29.108Z,21.60
2023-03-07T15:39:23.104Z,22.90
2023-03-07T15:42:09.957Z,23.30
2023-03-07T15:44:38.180Z,22.50
2023-03-07T15:47:14.836Z,25.30
2023-03-07T15:49:50.290Z,24.80
2023-03-07T15:52:34.611Z,25.00
2023-03-07T15:55:08.384Z,24.20
2023-03-07T15:58:08.022Z,26.30
2023-03-07T16:00:38.531Z,25.10
2023-03-07T16:03:29.744Z,24.60
2023-03-07T16:05:59.305Z,26.90
2023-03-07T16:08:29.204Z,26.90
2023-03-07T16:11:04.846Z,27.90
2023-03-07T16:13:41.249Z,26.00
2023-03-07T16:16:13.456Z,25.50
2023-03-07T16:18:41.957Z,26.50
2023-03-07T16:21:14.074Z,27.00
2023-03-07T16:23:44.474Z,25.90
2023-03-07T16:26:15.050Z,28.00
2023-03-07T16:28:44.165Z,26.80
2023-03-07T16:31:13.025Z,25.50
2023-03-07T16:33:41.653Z,27.10
2023-03-07T16:36:12.795Z,25.30
2023-03-07T16:38:41.284Z,24.90
2023-03-07T16:41:15.340Z,27.90
2023-03-07T16:43:44.106Z,26.80
2023-03-07T16:46:16.923Z,25.70
2023-03-07T16:48:45.856Z,25.10
2023-03-07T16:51:17.207Z,24.70
2023-03-07T16:53:46.147Z,25.80
2023-03-07T16:56:32.699Z,26.80
2023-03-07T16:59:00.789Z,25.80
2023-03-07T17:01:29.167Z,26.50
2023-03-07T17:03:57.309Z,27.80
2023-03-07T17:06:37.100Z,28.70
2023-03-07T17:09:06.745Z,28.10
2023-03-07T17:11:49.372Z,30.50
2023-03-07T17:14:18.010Z,32.20
2023-03-07T17:16:47.610Z,32.70
2023-03-07T17:19:28.273Z,33.10
2023-03-07T17:21:57.695Z,31.80
2023-03-07T17:24:26.480Z,33.40
2023-03-07T17:26:59.667Z,31.80
2023-03-07T17:29:42.347Z,31.70
2023-03-07T17:32:10.632Z,31.40
2023-03-07T17:34:39.586Z,31.10
2023-03-07T17:39:36.064Z,33.00
2023-03-07T17:42:06.197Z,31.60
2023-03-07T17:44:36.128Z,31.90
2023-03-07T17:47:04.669Z,32.40
2023-03-07T17:49:37.096Z,33.10
2023-03-07T17:52:05.938Z,32.90
2023-03-07T17:57:03.859Z,30.60
2023-03-07T17:59:32.794Z,31.60
2023-03-07T18:02:06.065Z,32.90
2023-03-07T18:04:34.144Z,32.50
2023-03-07T18:07:02.242Z,32.70
2023-03-07T18:09:30.835Z,33.70
2023-03-07T18:11:59.114Z,33.30
2023-03-07T18:14:27.390Z,34.00
2023-03-07T18:16:55.446Z,25.80
2023-03-07T18:19:26.935Z,35.50
2023-03-07T18:21:55.710Z,33.70
2023-03-07T18:24:26.587Z,30.30
2023-03-07T18:26:59.017Z,31.50
2023-03-07T18:29:27.447Z,30.70
2023-03-07T18:31:55.858Z,29.20
2023-03-07T18:34:25.012Z,28.10
2023-03-07T18:36:54.468Z,27.50
2023-03-07T18:39:23.197Z,29.80
2023-03-07T18:41:51.414Z,31.00
2023-03-07T18:44:19.907Z,31.50
2023-03-07T18:46:49.401Z,30.30
2023-03-07T18:49:17.992Z,31.40
2023-03-07T18:51:46.379Z,31.30
2023-03-07T18:56:47.239Z,28.90
2023-03-07T18:59:16.202Z,33.00
2023-03-07T19:01:45.354Z,35.30
2023-03-07T19:04:13.616Z,34.80
2023-03-07T19:06:45.034Z,35.90
2023-03-07T19:09:15.951Z,35.50
2023-03-07T19:11:43.956Z,35.30
2023-03-07T19:14:14.130Z,35.30
2023-03-07T19:16:42.594Z,33.90
2023-03-07T19:19:13.224Z,32.90
2023-03-07T19:21:41.227Z,35.40
2023-03-07T19:24:11.418Z,36.90
2023-03-07T19:26:42.812Z,45.40
2023-03-07T19:29:12.711Z,40.70
2023-03-07T19:31:43.852Z,48.40
2023-03-07T19:34:12.182Z,40.90
2023-03-07T19:36:41.605Z,36.70
2023-03-07T19:39:14.864Z,65.50
2023-03-07T19:41:45.450Z,45.10
2023-03-07T19:44:13.667Z,48.60
2023-03-07T19:46:46.122Z,42.20
2023-03-07T19:49:20.851Z,54.20
2023-03-07T19:51:50.358Z,48.50
2023-03-07T19:54:20.579Z,45.30
2023-03-07T19:56:48.633Z,61.30
2023-03-07T19:59:16.824Z,51.50
2023-03-07T20:01:46.403Z,48.20
2023-03-07T20:04:16.348Z,51.20
2023-03-07T20:06:44.627Z,67.10
2023-03-07T20:09:12.960Z,61.10
2023-03-07T20:11:43.247Z,68.60
2023-03-07T20:14:12.242Z,69.60
2023-03-07T20:16:42.695Z,72.90
2023-03-07T20:19:11.055Z,76.90
2023-03-07T20:21:49.808Z,83.20
2023-03-07T20:24:18.955Z,74.70
2023-03-07T20:29:16.723Z,71.00
2023-03-07T20:31:46.434Z,68.50
2023-03-07T20:34:14.971Z,71.00
2023-03-07T20:36:43.241Z,72.60
2023-03-07T20:39:15.134Z,70.50
2023-03-07T20:41:45.522Z,70.90
2023-03-07T20:44:14.670Z,75.00
2023-03-07T20:49:12.564Z,70.10
2023-03-07T20:51:40.901Z,68.70
2023-03-07T20:54:12.156Z,67.60
2023-03-07T20:56:40.890Z,54.50
2023-03-07T20:59:12.684Z,51.90
2023-03-07T21:01:41.854Z,50.80
2023-03-07T21:04:12.285Z,48.80
2023-03-07T21:06:41.898Z,46.00
2023-03-07T21:09:11.431Z,40.60
2023-03-07T21:11:42.679Z,40.10
2023-03-07T21:14:12.518Z,39.20
2023-03-07T21:16:44.808Z,44.50
2023-03-07T21:19:13.177Z,47.60
2023-03-07T21:21:41.480Z,51.60
2023-03-07T21:24:12.108Z,54.70
2023-03-07T21:26:43.224Z,55.70
2023-03-07T21:29:13.330Z,53.50
2023-03-07T21:31:41.537Z,52.70
2023-03-07T21:34:13.441Z,50.50
2023-03-07T21:36:41.584Z,49.40
2023-03-07T21:39:10.696Z,49.60
2023-03-07T21:41:39.124Z,52.70
2023-03-07T21:44:07.341Z,49.40
2023-03-07T21:49:04.223Z,45.40
2023-03-07T21:51:32.600Z,40.90
2023-03-07T21:54:00.932Z,40.50
2023-03-07T21:58:57.880Z,40.80
2023-03-07T22:01:29.074Z,65.20
2023-03-07T22:03:58.263Z,50.30
2023-03-07T22:06:26.652Z,51.30
2023-03-07T22:08:58.703Z,44.70
2023-03-07T22:11:26.943Z,41.10
2023-03-07T22:13:56.127Z,38.20
2023-03-07T22:16:29.637Z,37.00
2023-03-07T22:18:58.151Z,35.10
2023-03-07T22:21:26.836Z,37.10
2023-03-07T22:23:59.962Z,37.80
2023-03-07T22:26:29.256Z,38.70
2023-03-07T22:28:57.327Z,49.30
2023-03-07T22:31:25.727Z,46.50
2023-03-07T22:33:54.617Z,51.10
2023-03-07T22:36:24.739Z,47.60
2023-03-07T22:38:55.181Z,54.10
2023-03-07T22:41:23.474Z,60.10
2023-03-07T22:43:52.579Z,58.70
2023-03-07T22:46:20.899Z,56.40
2023-03-07T22:48:52.155Z,58.80
2023-03-07T22:51:20.426Z,56.20
2023-03-07T22:53:49.393Z,57.30
2023-03-07T22:56:22.109Z,47.00
2023-03-07T22:58:58.565Z,37.40
2023-03-07T23:01:27.483Z,38.40
2023-03-07T23:03:56.570Z,49.20
2023-03-07T23:06:29.232Z,47.40
2023-03-07T23:08:59.670Z,50.30
2023-03-07T23:11:33.450Z,49.50
2023-03-07T23:14:01.755Z,47.10
2023-03-07T23:19:02.083Z,32.30
2023-03-07T23:21:31.604Z,43.70
2023-03-07T23:24:00.934Z,41.70
2023-03-07T23:26:31.136Z,58.10
2023-03-07T23:28:59.270Z,49.80
2023-03-07T23:31:36.572Z,46.10
2023-03-07T23:34:06.806Z,48.50
2023-03-07T23:36:36.075Z,56.70
2023-03-07T23:39:04.274Z,52.40
2023-03-07T23:41:32.455Z,50.60
2023-03-07T23:44:01.277Z,53.60
2023-03-07T23:46:30.689Z,54.60
2023-03-07T23:48:59.548Z,57.60
2023-03-07T23:51:27.914Z,62.10
2023-03-07T23:54:02.301Z,65.20
2023-03-07T23:56:30.612Z,61.80
2023-03-07T23:58:58.609Z,71.90
